Time;durP1;ratioP1;P1;durP2;ratioP2;P2;SDS_P1;SDS_P2;PMS_P1;PMS_P2;Temp;Humidity;BMP_temperature;BMP_pressure;BME280_temperature;BME280_humidity;BME280_pressure;Samples;Min_cycle;Max_cycle;Signal;HPM_P1;HPM_P2
2023/01/17 00:01:07;;;;;;;45.33;16.08;;;4.70;99.90;;;;;;6241076;23;20044;-79
2023/01/17 00:10:08;;;;;;;38.30;13.93;;;4.80;99.90;;;;;;6221536;23;20050;-78
2023/01/17 00:13:02;;;;;;;39.08;15.13;;;4.80;99.90;;;;;;6262349;23;20050;-80
2023/01/17 00:15:38;;;;;;;38.78;14.75;;;4.80;99.90;;;;;;6239631;23;20027;-79
2023/01/17 00:18:19;;;;;;;38.38;14.27;;;4.60;99.90;;;;;;6206929;23;20045;-79
2023/01/17 05:01:14;;;;;;;9.32;3.42;;;5.00;99.90;;;;;;6165477;22;21085;31
2023/01/17 05:07:30;;;;;;;10.30;3.33;;;5.10;99.90;;;;;;6134761;23;20041;-78
2023/01/17 05:32:52;;;;;;;15.45;7.28;;;5.10;99.90;;;;;;6125479;23;20915;31
2023/01/17 05:39:13;;;;;;;16.27;7.00;;;5.10;99.90;;;;;;6153721;22;20131;31
2023/01/17 05:53:02;;;;;;;18.57;7.97;;;5.10;99.90;;;;;;6125221;23;20233;31
2023/01/17 06:24:19;;;;;;;11.55;4.47;;;5.00;99.90;;;;;;6201389;23;20304;-79
2023/01/17 06:30:16;;;;;;;14.50;4.20;;;5.00;99.90;;;;;;6094344;23;20152;-79
2023/01/17 06:36:33;;;;;;;12.38;5.00;;;5.00;99.90;;;;;;6122560;23;20060;-78
2023/01/17 06:42:51;;;;;;;11.75;4.93;;;5.00;99.90;;;;;;6163645;23;20985;31
2023/01/17 06:57:15;;;;;;;7.95;2.80;;;5.00;99.90;;;;;;6167823;22;20944;31
2023/01/17 07:03:16;;;;;;;7.75;2.75;;;5.00;99.90;;;;;;6189199;23;20013;-78
2023/01/17 07:14:58;;;;;;;4.47;1.75;;;5.10;99.90;;;;;;6222638;22;20039;-79
2023/01/17 07:18:05;;;;;;;5.30;1.67;;;5.10;99.90;;;;;;6149564;23;20523;31
2023/01/17 07:27:45;;;;;;;18.52;7.60;;;5.00;99.90;;;;;;6105701;23;1400987;-79
2023/01/17 07:30:14;;;;;;;36.92;16.83;;;5.00;99.90;;;;;;6154311;23;20026;-79
2023/01/17 07:36:13;;;;;;;291.70;103.85;;;5.00;99.90;;;;;;6204884;23;20024;-79
2023/01/17 07:39:15;;;;;;;37.55;18.60;;;4.90;99.90;;;;;;6178444;23;20024;-78
2023/01/17 07:48:44;;;;;;;12.07;6.07;;;4.90;99.90;;;;;;6212760;22;20061;-79
2023/01/17 07:51:13;;;;;;;13.50;5.93;;;4.90;99.90;;;;;;6201989;23;20025;-78
2023/01/17 07:53:48;;;;;;;13.70;5.50;;;5.10;99.90;;;;;;6100619;23;20024;-78
2023/01/17 07:56:22;;;;;;;11.40;5.30;;;4.90;99.90;;;;;;6194350;22;20025;31
2023/01/17 07:58:54;;;;;;;10.23;4.38;;;4.90;99.90;;;;;;6119909;23;20249;-79
2023/01/17 08:01:28;;;;;;;13.63;6.80;;;4.90;99.90;;;;;;6159405;22;20024;-79
2023/01/17 08:04:18;;;;;;;22.10;8.15;;;5.00;99.90;;;;;;6167372;23;20047;-80
2023/01/17 08:06:47;;;;;;;15.10;6.93;;;5.00;99.90;;;;;;6211088;23;20024;-78
2023/01/17 08:09:15;;;;;;;10.13;5.63;;;4.90;99.90;;;;;;6217704;23;20357;-78
2023/01/17 08:11:56;;;;;;;12.35;7.72;;;5.00;99.90;;;;;;6211121;23;20031;-78
2023/01/17 08:14:41;;;;;;;12.63;6.43;;;5.00;99.90;;;;;;6164342;23;20078;-78
2023/01/17 08:17:28;;;;;;;8.55;3.92;;;4.80;99.90;;;;;;6189437;23;20522;-78
2023/01/17 08:19:56;;;;;;;19.90;8.43;;;5.10;99.90;;;;;;6168345;23;20017;-78
2023/01/17 08:22:23;;;;;;;15.48;7.35;;;5.10;99.90;;;;;;6196863;23;20025;-78
2023/01/17 08:25:05;;;;;;;16.70;8.65;;;4.60;99.90;;;;;;6143327;23;20021;-78
2023/01/17 08:27:33;;;;;;;11.25;6.60;;;5.20;99.90;;;;;;6158187;23;20018;-78
2023/01/17 08:30:03;;;;;;;9.02;4.50;;;5.20;99.90;;;;;;6130854;23;20361;-79
2023/01/17 08:32:30;;;;;;;8.23;4.78;;;5.20;99.90;;;;;;6155934;23;20386;-79
2023/01/17 08:34:58;;;;;;;6.90;3.80;;;5.20;99.90;;;;;;6132137;23;20027;-78
2023/01/17 08:37:26;;;;;;;7.95;2.80;;;5.00;99.90;;;;;;6185749;23;20021;-79
2023/01/17 08:39:54;;;;;;;7.63;3.38;;;5.20;99.90;;;;;;6155611;23;20021;-79
2023/01/17 08:42:24;;;;;;;5.70;2.95;;;4.90;99.90;;;;;;6159619;23;20028;-78
2023/01/17 08:45:15;;;;;;;5.85;3.28;;;5.30;99.90;;;;;;6156315;23;20040;-78
2023/01/17 08:47:42;;;;;;;4.10;2.20;;;5.30;99.90;;;;;;6050250;23;20489;-78
2023/01/17 08:50:10;;;;;;;8.40;4.00;;;5.30;99.90;;;;;;6093649;23;20110;-78
2023/01/17 08:52:40;;;;;;;6.03;2.42;;;5.20;99.90;;;;;;6067952;23;20492;-78
2023/01/17 08:55:09;;;;;;;5.05;3.03;;;5.30;99.90;;;;;;6092057;23;20399;-78
2023/01/17 08:57:47;;;;;;;4.90;1.80;;;5.00;99.90;;;;;;6069881;23;20085;-78
2023/01/17 09:00:15;;;;;;;9.75;3.42;;;5.40;99.90;;;;;;6071295;23;20425;-78
2023/01/17 09:02:45;;;;;;;7.93;2.95;;;5.40;99.90;;;;;;6095426;23;20021;-78
2023/01/17 09:05:12;;;;;;;2.90;1.13;;;5.50;99.90;;;;;;6114416;23;20123;-78
2023/01/17 09:07:40;;;;;;;5.72;2.25;;;5.50;99.90;;;;;;6089860;23;20606;-78
2023/01/17 09:12:54;;;;;;;4.13;1.75;;;5.60;99.90;;;;;;6143966;23;20108;-78
2023/01/17 09:15:29;;;;;;;5.05;1.73;;;5.80;99.90;;;;;;6095299;23;20065;-78
2023/01/17 09:17:56;;;;;;;4.18;1.75;;;5.80;99.90;;;;;;6091211;23;20068;-79
2023/01/17 09:20:28;;;;;;;4.28;2.13;;;5.80;99.90;;;;;;6090008;23;20754;-78
2023/01/17 09:23:00;;;;;;;4.78;1.48;;;6.00;99.90;;;;;;6091827;23;20081;-78
2023/01/17 09:25:28;;;;;;;3.55;1.42;;;6.00;99.90;;;;;;6112757;23;20533;-78
2023/01/17 09:27:57;;;;;;;6.18;1.35;;;6.00;99.90;;;;;;6092204;23;20026;-78
2023/01/17 09:30:25;;;;;;;3.22;1.50;;;6.10;99.90;;;;;;6053264;23;20387;-77
2023/01/17 09:32:54;;;;;;;6.90;2.65;;;6.10;99.90;;;;;;6028450;23;20026;-78
2023/01/17 09:35:25;;;;;;;3.57;1.00;;;5.90;99.90;;;;;;6087568;23;20021;-79
2023/01/17 09:37:54;;;;;;;3.40;1.23;;;5.70;99.90;;;;;;6149989;23;20261;-79
2023/01/17 09:40:24;;;;;;;2.55;0.63;;;6.20;99.90;;;;;;6165510;23;20039;-79
2023/01/17 09:43:47;;;;;;;2.08;1.02;;;6.20;99.90;;;;;;6178948;23;20365;-78
2023/01/17 09:46:36;;;;;;;1.70;0.85;;;6.10;99.90;;;;;;6181244;23;20016;-79
2023/01/17 09:49:30;;;;;;;6.20;1.45;;;5.60;99.90;;;;;;6181462;23;20024;-78
2023/01/17 09:51:59;;;;;;;1.38;0.45;;;6.10;99.90;;;;;;6204488;23;20028;-77
2023/01/17 09:54:37;;;;;;;2.58;0.50;;;6.20;99.90;;;;;;6209370;23;20088;-77
2023/01/17 09:57:37;;;;;;;7.38;2.65;;;6.30;99.90;;;;;;6166796;23;20040;-78
2023/01/17 10:00:11;;;;;;;27.92;8.77;;;6.40;99.90;;;;;;6186237;23;20036;-78
2023/01/17 10:02:39;;;;;;;3.78;1.10;;;6.40;99.90;;;;;;6163832;23;20021;-79
2023/01/17 10:05:46;;;;;;;3.45;0.90;;;6.50;99.90;;;;;;6164805;22;20076;-78
2023/01/17 10:08:36;;;;;;;15.07;6.32;;;6.30;99.90;;;;;;6154051;23;20021;-78
2023/01/17 10:11:18;;;;;;;35.22;15.18;;;6.60;99.90;;;;;;6157246;23;20020;-77
2023/01/17 10:14:15;;;;;;;3.10;1.07;;;6.70;99.90;;;;;;6159812;23;20027;-77
2023/01/17 10:17:08;;;;;;;3.10;0.57;;;6.70;99.90;;;;;;6155181;23;20429;-78
2023/01/17 10:19:47;;;;;;;2.35;1.10;;;6.70;99.90;;;;;;6128985;23;20520;-78
2023/01/17 10:22:33;;;;;;;2.28;0.40;;;6.80;99.90;;;;;;6150814;23;20021;-78
2023/01/17 10:25:15;;;;;;;1.75;0.70;;;6.80;99.90;;;;;;6150039;23;20032;-77
2023/01/17 10:27:50;;;;;;;1.67;0.40;;;6.90;99.90;;;;;;6148054;23;20024;-77
2023/01/17 10:30:23;;;;;;;1.75;0.40;;;7.00;99.90;;;;;;6146601;23;20527;-77
2023/01/17 10:32:50;;;;;;;;;;;7.00;99.90;;;;;;6142909;23;20399;-77
2023/01/17 10:35:29;;;;;;;0.80;0.22;;;7.00;99.90;;;;;;6165627;23;20003;-77
2023/01/17 10:37:59;;;;;;;2.42;0.60;;;7.00;99.90;;;;;;6127852;23;20029;-77
2023/01/17 10:40:58;;;;;;;1.45;0.50;;;7.00;99.90;;;;;;6235192;23;20044;-78
2023/01/17 10:44:13;;;;;;;3.10;0.55;;;7.10;99.90;;;;;;6211000;23;20028;-78
2023/01/17 10:46:46;;;;;;;4.47;1.38;;;7.20;99.90;;;;;;6201239;23;20398;-78
2023/01/17 10:49:19;;;;;;;;;;;7.30;99.90;;;;;;6213476;23;20407;-78
2023/01/17 10:52:00;;;;;;;2.10;0.70;;;7.30;99.90;;;;;;6210886;23;19915;-78
2023/01/17 10:54:48;;;;;;;3.20;0.73;;;7.30;99.90;;;;;;6188696;23;20020;-79
2023/01/17 10:57:23;;;;;;;1.35;0.55;;;7.30;99.90;;;;;;6213617;23;20240;-78
2023/01/17 10:59:51;;;;;;;2.20;0.57;;;7.30;99.90;;;;;;6218395;23;20016;-78
2023/01/17 11:02:44;;;;;;;14.15;5.20;;;7.40;99.90;;;;;;6170938;23;20021;-78
2023/01/17 11:05:28;;;;;;;17.50;5.82;;;7.40;99.90;;;;;;6147940;23;20021;-77
2023/01/17 11:07:58;;;;;;;2.10;0.80;;;7.50;99.90;;;;;;6129229;23;20089;-78
2023/01/17 11:10:36;;;;;;;7.55;3.05;;;6.60;99.90;;;;;;6150504;23;20021;-80
2023/01/17 11:13:35;;;;;;;3.28;1.30;;;7.50;99.90;;;;;;6130218;23;20025;-78
2023/01/17 11:16:28;;;;;;;21.75;11.70;;;8.30;99.90;;;;;;6154950;23;20376;-79
2023/01/17 11:19:22;;;;;;;1.67;0.50;;;7.60;99.90;;;;;;6094778;23;20528;-79
2023/01/17 11:21:56;;;;;;;5.35;2.72;;;7.50;99.90;;;;;;6123403;23;20408;-79
2023/01/17 11:24:30;;;;;;;1.98;0.90;;;7.60;99.90;;;;;;6070290;23;20505;-79
2023/01/17 11:26:57;;;;;;;2.28;0.57;;;7.60;99.90;;;;;;6092958;23;20125;-79
2023/01/17 11:29:39;;;;;;;3.03;1.23;;;7.50;99.90;;;;;;6071261;23;20510;-79
2023/01/17 11:32:21;;;;;;;1.52;0.70;;;7.60;99.90;;;;;;6094102;23;20026;-79
2023/01/17 11:35:19;;;;;;;1.20;0.40;;;7.70;99.90;;;;;;6089645;23;20029;-79
2023/01/17 11:38:11;;;;;;;3.05;0.73;;;7.70;99.90;;;;;;6109938;23;20209;-79
2023/01/17 11:40:46;;;;;;;1.92;0.60;;;7.70;99.90;;;;;;6093182;23;20022;-78
2023/01/17 11:43:22;;;;;;;2.10;0.60;;;7.70;99.90;;;;;;6123819;23;20021;-78
2023/01/17 11:46:14;;;;;;;2.17;0.57;;;7.80;99.90;;;;;;6122754;23;20056;-78
2023/01/17 11:48:49;;;;;;;1.73;0.47;;;7.80;99.90;;;;;;6133971;23;20006;-78
2023/01/17 11:51:30;;;;;;;1.65;0.73;;;7.70;99.90;;;;;;6108109;23;20345;-78
2023/01/17 11:54:13;;;;;;;2.65;0.40;;;7.80;99.90;;;;;;6135527;23;20021;-78
2023/01/17 11:56:44;;;;;;;2.63;0.47;;;7.90;99.90;;;;;;6155534;23;20013;-78
2023/01/17 11:59:30;;;;;;;1.15;0.43;;;7.80;99.90;;;;;;6114090;23;20032;-78
2023/01/17 12:02:22;;;;;;;1.20;0.30;;;7.80;99.90;;;;;;6160544;23;20041;-78
2023/01/17 12:05:25;;;;;;;5.75;0.60;;;7.70;99.90;;;;;;6192546;23;20024;-78
2023/01/17 12:08:30;;;;;;;1.80;0.60;;;7.80;99.90;;;;;;6166591;23;20103;-79
2023/01/17 12:11:23;;;;;;;1.58;0.47;;;7.80;99.90;;;;;;6194167;23;20016;-78
2023/01/17 12:14:09;;;;;;;2.47;0.70;;;7.80;99.90;;;;;;6187621;23;20031;-78
2023/01/17 12:17:04;;;;;;;3.15;0.50;;;7.80;99.90;;;;;;6208983;23;20027;-79
2023/01/17 12:19:50;;;;;;;1.70;0.57;;;7.90;99.90;;;;;;6185095;23;20333;-80
2023/01/17 12:22:33;;;;;;;2.58;0.32;;;7.80;99.90;;;;;;6186867;23;20076;-79
2023/01/17 12:25:22;;;;;;;2.53;0.90;;;7.80;99.90;;;;;;6208352;23;20344;-79
2023/01/17 12:28:13;;;;;;;1.63;0.80;;;7.60;99.90;;;;;;6215456;23;20027;-79
2023/01/17 12:31:02;;;;;;;2.90;0.35;;;7.80;99.90;;;;;;6189955;23;20024;-79
2023/01/17 12:33:54;;;;;;;1.35;0.60;;;7.60;99.90;;;;;;6215106;23;20051;-79
2023/01/17 12:36:53;;;;;;;1.92;0.40;;;7.70;99.90;;;;;;6186379;23;20853;-79
2023/01/17 12:39:34;;;;;;;4.43;1.30;;;7.70;99.90;;;;;;6138251;23;20130;-79
2023/01/17 12:42:12;;;;;;;2.35;0.65;;;7.70;99.90;;;;;;6186984;23;20031;-79
2023/01/17 12:44:56;;;;;;;3.42;1.42;;;7.60;99.90;;;;;;6206796;23;20017;-79
2023/01/17 12:47:36;;;;;;;5.05;0.90;;;7.60;99.90;;;;;;6207238;23;20028;31
2023/01/17 12:50:13;;;;;;;0.98;0.35;;;7.60;99.90;;;;;;6095871;23;20029;-78
2023/01/17 12:52:48;;;;;;;1.38;0.57;;;7.20;99.90;;;;;;6071407;23;20501;-78
2023/01/17 12:55:33;;;;;;;1.67;0.40;;;8.10;99.90;;;;;;6119700;23;20097;-79
2023/01/17 12:58:06;;;;;;;3.03;1.15;;;7.40;99.90;;;;;;6120716;23;20485;-78
2023/01/17 13:00:38;;;;;;;1.75;0.50;;;7.50;99.90;;;;;;6161865;22;20020;-79
2023/01/17 13:03:14;;;;;;;0.70;0.20;;;7.40;99.90;;;;;;6179644;23;20024;-79
2023/01/17 13:05:45;;;;;;;4.88;1.30;;;7.40;99.90;;;;;;6156277;23;20035;-79
2023/01/17 13:08:16;;;;;;;5.28;2.30;;;7.40;99.90;;;;;;6183376;23;20020;-79
2023/01/17 13:10:55;;;;;;;2.92;1.00;;;7.40;99.90;;;;;;6186207;23;20021;-79
2023/01/17 13:13:24;;;;;;;2.38;1.23;;;7.30;99.90;;;;;;6216462;23;20321;-78
2023/01/17 13:15:59;;;;;;;3.63;1.13;;;7.30;99.90;;;;;;6160007;23;20021;-79
2023/01/17 13:18:28;;;;;;;2.03;0.77;;;7.20;99.90;;;;;;6165725;23;20071;-79
2023/01/17 13:21:31;;;;;;;3.03;0.50;;;7.20;99.90;;;;;;6218597;23;20032;-79
2023/01/17 13:24:00;;;;;;;4.03;0.77;;;7.20;99.90;;;;;;6145815;23;20337;-79
2023/01/17 13:26:46;;;;;;;1.95;0.60;;;7.10;99.90;;;;;;6214214;23;20246;-80
2023/01/17 13:29:16;;;;;;;3.47;1.25;;;7.10;99.90;;;;;;6222735;23;20028;-80
2023/01/17 13:31:49;;;;;;;5.32;1.88;;;7.10;99.90;;;;;;6200615;23;20020;-80
2023/01/17 13:34:47;;;;;;;2.70;0.60;;;7.10;99.90;;;;;;6197069;23;20048;-80
2023/01/17 13:37:38;;;;;;;2.35;0.70;;;7.00;99.90;;;;;;6212029;23;20523;-80
2023/01/17 13:40:24;;;;;;;8.27;1.60;;;7.00;99.90;;;;;;6227751;23;20020;-80
2023/01/17 13:43:06;;;;;;;9.70;1.42;;;6.80;99.90;;;;;;6188732;23;20108;-80
2023/01/17 13:45:36;;;;;;;6.72;1.33;;;6.70;99.90;;;;;;6216362;23;20061;-79
2023/01/17 13:48:13;;;;;;;8.65;2.08;;;6.90;99.90;;;;;;6214914;23;20020;-79
2023/01/17 13:50:46;;;;;;;8.75;1.50;;;6.90;99.90;;;;;;6213316;23;20029;-80
2023/01/17 13:53:38;;;;;;;11.55;2.00;;;6.90;99.90;;;;;;6188323;23;20017;-78
2023/01/17 13:56:29;;;;;;;8.63;3.20;;;6.90;99.90;;;;;;6192559;23;20059;-78
2023/01/17 13:59:01;;;;;;;3.35;1.30;;;6.90;99.90;;;;;;6190134;23;20051;-78
2023/01/17 14:01:37;;;;;;;3.65;0.77;;;6.90;99.90;;;;;;6188093;23;20016;-78
2023/01/17 14:04:07;;;;;;;2.53;0.70;;;6.90;99.90;;;;;;6188026;23;20111;-78
2023/01/17 14:06:45;;;;;;;1.95;0.60;;;5.90;99.90;;;;;;6187849;23;20094;-78
2023/01/17 14:09:41;;;;;;;2.33;0.68;;;6.80;99.90;;;;;;6213003;23;20020;-78
2023/01/17 14:12:14;;;;;;;3.97;1.67;;;6.80;99.90;;;;;;6191288;23;20013;-78
2023/01/17 14:14:54;;;;;;;9.93;4.38;;;6.80;99.90;;;;;;6211475;23;20321;-79
2023/01/17 14:17:27;;;;;;;13.55;5.50;;;6.80;99.90;;;;;;6217934;23;20017;-79
2023/01/17 14:20:02;;;;;;;13.10;5.20;;;6.70;99.90;;;;;;6219446;23;20096;-79
2023/01/17 14:22:34;;;;;;;10.45;4.45;;;6.80;99.90;;;;;;6215978;23;20021;-78
2023/01/17 14:25:11;;;;;;;7.05;3.40;;;6.90;99.90;;;;;;6189779;23;20027;-78
2023/01/17 14:27:46;;;;;;;8.75;3.15;;;6.70;99.90;;;;;;6164178;23;20020;-78
2023/01/17 14:30:32;;;;;;;7.55;2.70;;;7.20;99.90;;;;;;6219279;23;20024;-78
2023/01/17 14:33:00;;;;;;;8.10;3.03;;;6.60;99.90;;;;;;6196819;23;20032;-78
2023/01/17 14:35:31;;;;;;;132.40;46.50;;;6.20;99.90;;;;;;6163367;23;20025;-78
2023/01/17 14:38:01;;;;;;;58.88;23.35;;;6.40;99.90;;;;;;6164736;23;20069;-78
2023/01/17 14:40:32;;;;;;;139.95;45.38;;;6.60;99.90;;;;;;6163366;23;20017;-78
2023/01/17 14:43:13;;;;;;;38.88;20.45;;;5.80;99.90;;;;;;6190146;23;20020;-78
2023/01/17 14:45:42;;;;;;;23.33;12.85;;;6.10;99.90;;;;;;6186876;23;20475;-78
2023/01/17 14:48:19;;;;;;;18.13;7.78;;;6.50;99.90;;;;;;6168455;23;20063;-78
2023/01/17 14:50:49;;;;;;;14.93;6.93;;;6.50;99.90;;;;;;6191213;23;20271;-78
2023/01/17 14:53:20;;;;;;;15.55;6.50;;;6.50;99.90;;;;;;6108691;23;20024;-78
2023/01/17 14:55:50;;;;;;;13.00;6.45;;;6.20;99.90;;;;;;6216909;23;20468;-78
2023/01/17 14:58:33;;;;;;;12.95;6.57;;;6.90;99.90;;;;;;6185795;23;20024;-78
2023/01/17 15:01:03;;;;;;;18.27;9.95;;;6.50;99.90;;;;;;6210840;23;20495;-78
2023/01/17 15:04:00;;;;;;;11.32;5.20;;;6.50;99.90;;;;;;6179469;23;20028;-78
2023/01/17 15:06:39;;;;;;;14.43;5.60;;;6.50;99.90;;;;;;6184966;23;20440;-78
2023/01/17 15:09:11;;;;;;;11.77;6.20;;;6.40;99.90;;;;;;6189195;23;20013;-78
2023/01/17 15:11:39;;;;;;;9.00;4.35;;;6.40;99.90;;;;;;6214574;23;20075;-78
2023/01/17 15:14:12;;;;;;;10.15;4.13;;;6.40;99.90;;;;;;6184604;23;20384;-78
2023/01/17 15:16:42;;;;;;;8.60;3.75;;;6.40;99.90;;;;;;6209143;23;20036;-78
2023/01/17 15:19:13;;;;;;;9.05;3.75;;;6.40;99.90;;;;;;6157360;23;20810;-78
2023/01/17 15:21:42;;;;;;;8.30;3.95;;;6.40;99.90;;;;;;6160389;23;20082;-78
2023/01/17 15:24:26;;;;;;;8.70;3.83;;;6.40;99.90;;;;;;6186480;23;20020;-78
2023/01/17 15:26:55;;;;;;;8.55;3.30;;;6.40;99.90;;;;;;6163236;23;20456;-78
2023/01/17 15:29:29;;;;;;;8.90;3.70;;;6.40;99.90;;;;;;6189460;23;20018;-78
2023/01/17 15:32:02;;;;;;;5.93;2.90;;;6.50;99.90;;;;;;6191139;23;20028;-78
2023/01/17 15:34:34;;;;;;;6.90;2.80;;;6.40;99.90;;;;;;6180526;23;20021;-78
2023/01/17 22:38:17;;;;;;;12.55;5.60;;;5.50;99.90;;;;;;6156177;23;20036;31
2023/01/17 22:51:56;;;;;;;13.70;7.25;;;5.40;99.90;;;;;;6125537;23;20028;31
2023/01/17 23:07:58;;;;;;;8.35;4.82;;;5.30;99.90;;;;;;6187775;22;20027;-78
2023/01/17 23:13:51;;;;;;;14.70;6.05;;;5.40;99.90;;;;;;6161150;23;20053;-78
2023/01/17 23:25:33;;;;;;;8.13;5.03;;;5.00;99.90;;;;;;6180340;22;20067;-77
2023/01/17 23:28:13;;;;;;;10.15;5.72;;;5.00;99.90;;;;;;6273120;22;20024;-78
2023/01/17 23:31:09;;;;;;;9.32;5.72;;;4.30;99.90;;;;;;6191200;23;20032;-79
2023/01/17 23:34:16;;;;;;;9.70;5.80;;;5.50;99.90;;;;;;6173918;23;20016;-78
2023/01/17 23:43:38;;;;;;;7.82;4.45;;;5.00;99.90;;;;;;6094874;23;20051;-79
2023/01/17 23:46:13;;;;;;;9.05;4.60;;;4.90;99.90;;;;;;6087538;23;20043;-78
2023/01/17 23:48:47;;;;;;;8.98;5.32;;;4.80;99.90;;;;;;6093145;23;20023;-78
2023/01/17 23:51:43;;;;;;;10.05;4.03;;;5.00;99.90;;;;;;6007641;23;20023;-79
2023/01/17 23:54:13;;;;;;;8.90;4.35;;;4.90;99.90;;;;;;6024437;23;20016;-79
2023/01/17 23:56:48;;;;;;;8.30;4.63;;;4.90;99.90;;;;;;6002221;24;20020;-79
2023/01/17 23:59:18;;;;;;;10.60;5.40;;;4.50;99.90;;;;;;6002696;24;20466;-79
